Faneromeni — SVKG — position and weather

sailwx.info

Track history (hours):
 
Tides and Currents Weather Stations Pressure Air Temp Water Temp Dewpoint Dewpoint Depression Visibility Wind Speed Wind Dir Waves Ship Positions

Faneromeni

Last reported at 2017-May-31 17:29 UTC. Time now 2017-Jun-23 12:09 UTC.
Position N 30°12' E 123°45'.
Warning: this ship's position is 22 days out of date.

Length 230 m; draft 7.5 m.

Type: Ship. MMSI: 240576000.

Date/timePositionNaut miles runAvg speedWind from/ knotsBaromVisibWave heightAir tempDewpointWater temp
2017-May-31 17:29N 30°12' E 123°45'612.2
2017-May-31 17:00N 30°18' E 123°46'612.0
2017-May-31 16:29N 30°24' E 123°47'1712.3
2017-May-31 15:08N 30°40' E 123°51'312.4
2017-May-31 14:55N 30°43' E 123°52'2312.7
2017-May-31 13:05N 31°06' E 123°57'112.8
2017-May-31 13:00N 31°07' E 123°58'713.2
2017-May-31 12:30N 31°13' E 123°58'713.0
2017-May-31 12:00N 31°20' E 123°59'713.0
2017-May-31 11:30N 31°26' E 123°59'712.6
2017-May-31 10:57N 31°33' E 123°60'612.8
2017-May-31 10:30N 31°39' E 124°00'612.6
2017-May-31 10:00N 31°45' E 124°00'612.8
2017-May-31 09:30N 31°51' E 124°00'612.7
2017-May-31 09:00N 31°58' E 124°00'2712.7
2017-May-31 06:54N 32°25' E 123°59'512.6
2017-May-31 06:30N 32°30' E 123°59'612.6
2017-May-31 06:00N 32°36' E 123°59'612.8
2017-May-31 05:30N 32°42' E 123°59'612.7
2017-May-31 05:00N 32°48' E 123°60'248 6.5
2017-May-29 14:58N 35°13' E 119°57'  
Track history (hours):
 
Tides and Currents Weather Stations Pressure Air Temp Water Temp Dewpoint Dewpoint Depression Visibility Wind Speed Wind Dir Waves Ship Positions

Faneromeni

Last reported at 2017-May-31 17:29 UTC. Time now 2017-Jun-23 12:09 UTC.
Position N 30°12' E 123°45'.
Warning: this ship's position is 22 days out of date.

Length 230 m; draft 7.5 m.

Type: Ship. MMSI: 240576000.

Date/timePositionNaut miles runAvg speedWind from/ knotsBaromVisibWave heightAir tempDewpointWater temp
2017-May-31 17:29N 30°12' E 123°45'612.2
2017-May-31 17:00N 30°18' E 123°46'612.0
2017-May-31 16:29N 30°24' E 123°47'1712.3
2017-May-31 15:08N 30°40' E 123°51'312.4
2017-May-31 14:55N 30°43' E 123°52'2312.7
2017-May-31 13:05N 31°06' E 123°57'112.8
2017-May-31 13:00N 31°07' E 123°58'713.2
2017-May-31 12:30N 31°13' E 123°58'713.0
2017-May-31 12:00N 31°20' E 123°59'713.0
2017-May-31 11:30N 31°26' E 123°59'712.6
2017-May-31 10:57N 31°33' E 123°60'612.8
2017-May-31 10:30N 31°39' E 124°00'612.6
2017-May-31 10:00N 31°45' E 124°00'612.8
2017-May-31 09:30N 31°51' E 124°00'612.7
2017-May-31 09:00N 31°58' E 124°00'2712.7
2017-May-31 06:54N 32°25' E 123°59'512.6
2017-May-31 06:30N 32°30' E 123°59'612.6
2017-May-31 06:00N 32°36' E 123°59'612.8
2017-May-31 05:30N 32°42' E 123°59'612.7
2017-May-31 05:00N 32°48' E 123°60'248 6.5
2017-May-29 14:58N 35°13' E 119°57'  

Dump ship's entire track history